createdAt,value
2022-11-23T00:01:56.855Z,99004.44
2022-11-23T00:04:26.511Z,98999.94
2022-11-23T00:06:55.979Z,98996.31
2022-11-23T00:09:25.478Z,98994.91
2022-11-23T00:11:54.981Z,98997.69
2022-11-23T00:14:27.087Z,99003.38
2022-11-23T00:16:56.624Z,98994.38
2022-11-23T00:19:26.200Z,98997.84
2022-11-23T00:21:55.910Z,99002.00
2022-11-23T00:24:25.386Z,99005.56
2022-11-23T00:26:54.850Z,99008.59
2022-11-23T00:29:27.404Z,99002.38
2022-11-23T00:31:56.860Z,99004.56
2022-11-23T00:34:26.338Z,99009.84
2022-11-23T00:36:55.778Z,99007.78
2022-11-23T00:39:25.215Z,99014.09
2022-11-23T00:41:54.684Z,99009.38
2022-11-23T00:44:26.702Z,99004.44
2022-11-23T00:46:56.173Z,99005.00
2022-11-23T00:49:25.653Z,99008.00
2022-11-23T00:51:55.096Z,99003.69
2022-11-23T00:54:24.566Z,99003.69
2022-11-23T00:56:54.041Z,99005.72
2022-11-23T00:59:23.624Z,99008.34
2022-11-23T01:01:55.769Z,99005.84
2022-11-23T01:04:25.687Z,99015.63
2022-11-23T01:06:58.103Z,99010.63
2022-11-23T01:09:28.019Z,99009.59
2022-11-23T01:11:57.501Z,99015.41
2022-11-23T01:14:26.992Z,99021.56
2022-11-23T01:16:59.024Z,99019.44
2022-11-23T01:19:28.553Z,99017.81
2022-11-23T01:21:58.085Z,99024.28
2022-11-23T01:24:27.816Z,99024.78
2022-11-23T01:26:57.716Z,99030.72
2022-11-23T01:29:27.320Z,99026.13
2022-11-23T01:31:59.344Z,99027.56
2022-11-23T01:34:28.812Z,99026.91
2022-11-23T01:36:58.350Z,99029.84
2022-11-23T01:39:27.908Z,99033.34
2022-11-23T01:41:57.329Z,99034.88
2022-11-23T01:44:28.389Z,99038.31
2022-11-23T01:47:00.531Z,99036.47
2022-11-23T01:49:30.701Z,99034.25
2022-11-23T01:52:01.022Z,99032.22
2022-11-23T01:54:32.801Z,99036.78
2022-11-23T01:57:03.277Z,99041.47
2022-11-23T01:59:33.995Z,99029.22
2022-11-23T02:02:06.423Z,99030.22
2022-11-23T02:04:37.906Z,99033.13
2022-11-23T02:07:07.496Z,99035.16
2022-11-23T02:09:37.091Z,99033.13
2022-11-23T02:12:07.342Z,99039.72
2022-11-23T02:14:36.943Z,99036.41
2022-11-23T02:17:09.084Z,99037.00
2022-11-23T02:19:43.049Z,99032.16
2022-11-23T02:22:14.283Z,99033.41
2022-11-23T02:24:45.308Z,99039.41
2022-11-23T02:27:17.499Z,99032.94
2022-11-23T02:29:47.036Z,99036.50
2022-11-23T02:32:18.862Z,99034.72
2022-11-23T02:34:48.404Z,99031.81
2022-11-23T02:37:18.009Z,99037.16
2022-11-23T02:39:48.317Z,99030.25
2022-11-23T02:42:20.569Z,99028.88
2022-11-23T02:44:52.059Z,99023.38
2022-11-23T02:47:21.595Z,99025.34
2022-11-23T02:49:51.567Z,99024.91
2022-11-23T02:52:21.193Z,99027.28
2022-11-23T02:54:50.722Z,99023.03
2022-11-23T02:57:22.810Z,99022.84
2022-11-23T02:59:52.893Z,99024.38
2022-11-23T03:02:22.472Z,99024.75
2022-11-23T03:04:52.004Z,99027.97
2022-11-23T03:07:21.652Z,99022.44
2022-11-23T03:09:51.304Z,99027.16
2022-11-23T03:12:23.461Z,99025.91
2022-11-23T03:14:53.551Z,99033.38
2022-11-23T03:17:23.113Z,99032.94
2022-11-23T03:19:52.692Z,99030.75
2022-11-23T03:22:22.214Z,99040.50
2022-11-23T03:24:51.778Z,99039.66
2022-11-23T03:27:23.942Z,99031.31
2022-11-23T03:29:53.482Z,99036.38
2022-11-23T03:32:23.034Z,99039.03
2022-11-23T03:34:52.579Z,99036.47
2022-11-23T03:37:22.133Z,99037.84
2022-11-23T03:39:51.745Z,99042.69
2022-11-23T03:42:23.896Z,99046.53
2022-11-23T03:44:53.481Z,99040.56
2022-11-23T03:47:23.022Z,99037.28
2022-11-23T03:49:52.545Z,99036.47
2022-11-23T03:52:22.881Z,99043.13
2022-11-23T03:54:52.502Z,99039.91
2022-11-23T03:57:24.669Z,99040.84
2022-11-23T03:59:54.226Z,99032.34
2022-11-23T04:02:23.815Z,99036.59
2022-11-23T04:04:53.650Z,99029.50
2022-11-23T04:07:23.244Z,99038.41
2022-11-23T04:09:52.923Z,99034.19
2022-11-23T04:12:25.999Z,99036.38
2022-11-23T04:14:55.545Z,99041.25
2022-11-23T04:17:25.093Z,99037.66
2022-11-23T04:19:54.637Z,99041.81
2022-11-23T04:22:24.205Z,99038.06
2022-11-23T04:24:53.716Z,99035.44
2022-11-23T04:27:25.982Z,99041.31
2022-11-23T04:29:55.509Z,99037.50
2022-11-23T04:32:25.054Z,99028.81
2022-11-23T04:35:01.973Z,99033.56
2022-11-23T04:37:33.786Z,99036.50
2022-11-23T04:40:08.465Z,99037.09
2022-11-23T04:42:40.657Z,99042.50
2022-11-23T04:45:15.490Z,99030.31
2022-11-23T04:47:45.077Z,99036.72
2022-11-23T04:50:14.608Z,99043.22
2022-11-23T04:52:44.177Z,99047.09
2022-11-23T04:55:13.987Z,99048.22
2022-11-23T04:57:49.741Z,99045.34
2022-11-23T05:00:20.126Z,99046.44
2022-11-23T05:02:49.811Z,99037.47
2022-11-23T05:05:19.380Z,99046.84
2022-11-23T05:07:49.024Z,99042.06
2022-11-23T05:10:18.826Z,99052.16
2022-11-23T05:12:51.030Z,99053.34
2022-11-23T05:15:20.764Z,99048.16
2022-11-23T05:17:51.579Z,99042.50
2022-11-23T05:20:23.413Z,99044.84
2022-11-23T05:22:52.977Z,99047.53
2022-11-23T05:25:22.524Z,99057.13
2022-11-23T05:27:54.687Z,99045.00
2022-11-23T05:30:24.326Z,99046.84
2022-11-23T05:32:53.912Z,99051.22
2022-11-23T05:35:23.477Z,99055.78
2022-11-23T05:37:53.034Z,99049.72
2022-11-23T05:40:22.648Z,99056.00
2022-11-23T05:42:57.293Z,99050.69
2022-11-23T05:45:26.981Z,99044.50
2022-11-23T05:47:57.215Z,99053.72
2022-11-23T05:50:30.398Z,99054.66
2022-11-23T05:52:59.983Z,99051.66
2022-11-23T05:55:29.714Z,99055.78
2022-11-23T05:58:01.894Z,99056.22
2022-11-23T06:00:31.496Z,99059.13
2022-11-23T06:03:02.787Z,99063.66
2022-11-23T06:05:32.865Z,99062.41
2022-11-23T06:08:02.407Z,99061.63
2022-11-23T06:10:31.953Z,99063.16
2022-11-23T06:13:07.537Z,99059.03
2022-11-23T06:15:37.080Z,99057.88
2022-11-23T06:18:06.968Z,99066.88
2022-11-23T06:20:36.528Z,99063.50
2022-11-23T06:23:06.213Z,99060.06
2022-11-23T06:25:35.772Z,99059.19
2022-11-23T06:28:08.026Z,99070.47
2022-11-23T06:30:37.539Z,99066.59
2022-11-23T06:33:07.555Z,99067.22
2022-11-23T06:35:37.153Z,99065.97
2022-11-23T06:38:06.909Z,99067.00
2022-11-23T06:40:36.474Z,99071.56
2022-11-23T06:43:09.144Z,99070.72
2022-11-23T06:45:38.865Z,99079.09
2022-11-23T06:48:09.132Z,99079.97
2022-11-23T06:50:38.679Z,99089.22
2022-11-23T06:53:08.457Z,99091.41
2022-11-23T06:55:38.013Z,99092.44
2022-11-23T06:58:10.200Z,99093.63
2022-11-23T07:00:39.713Z,99096.19
2022-11-23T07:03:09.340Z,99101.47
2022-11-23T07:05:41.197Z,99106.28
2022-11-23T07:08:11.155Z,99102.34
2022-11-23T07:10:40.780Z,99094.44
2022-11-23T07:13:14.375Z,99100.28
2022-11-23T07:15:43.996Z,99104.53
2022-11-23T07:18:13.549Z,99111.03
2022-11-23T07:20:43.079Z,99109.81
2022-11-23T07:23:13.664Z,99109.59
2022-11-23T07:25:43.187Z,99099.03
2022-11-23T07:28:16.144Z,99110.78
2022-11-23T07:30:45.705Z,99106.88
2022-11-23T07:33:15.620Z,99112.84
2022-11-23T07:35:45.339Z,99114.06
2022-11-23T07:38:15.006Z,99114.91
2022-11-23T07:40:44.671Z,99117.41
2022-11-23T07:43:17.227Z,99114.41
2022-11-23T07:45:47.349Z,99114.50
2022-11-23T07:48:17.484Z,99115.22
2022-11-23T07:50:47.048Z,99105.91
2022-11-23T07:53:17.746Z,99106.16
2022-11-23T07:55:47.726Z,99110.97
2022-11-23T07:58:20.552Z,99109.53
2022-11-23T08:00:50.791Z,99105.56
2022-11-23T08:03:30.079Z,99111.59
2022-11-23T08:06:00.691Z,99111.25
2022-11-23T08:08:31.267Z,99101.59
2022-11-23T08:11:00.950Z,99108.00
2022-11-23T08:13:34.766Z,99106.53
2022-11-23T08:16:04.767Z,99107.81
2022-11-23T08:18:34.557Z,99111.22
2022-11-23T08:21:04.334Z,99109.38
2022-11-23T08:23:34.525Z,99099.13
2022-11-23T08:26:10.360Z,99109.03
2022-11-23T08:28:45.957Z,99119.16
2022-11-23T08:31:15.768Z,99115.03
2022-11-23T08:33:46.084Z,99124.31
2022-11-23T08:36:22.459Z,99125.84
2022-11-23T08:38:54.246Z,99136.09
2022-11-23T08:41:24.467Z,99130.63
2022-11-23T08:43:57.591Z,99133.41
2022-11-23T08:46:27.623Z,99132.22
2022-11-23T08:48:58.776Z,99132.00
2022-11-23T08:51:29.145Z,99125.97
2022-11-23T08:54:00.747Z,99129.03
2022-11-23T08:56:30.567Z,99132.81
2022-11-23T08:59:08.525Z,99137.78
2022-11-23T09:01:38.567Z,99133.09
2022-11-23T09:04:10.026Z,99138.28
2022-11-23T09:06:43.946Z,99141.22
2022-11-23T09:09:16.591Z,99129.72
2022-11-23T09:11:46.902Z,99137.06
2022-11-23T09:14:22.345Z,99125.72
2022-11-23T09:16:52.687Z,99117.81
2022-11-23T09:19:22.901Z,99126.03
2022-11-23T09:21:54.602Z,99128.31
2022-11-23T09:24:30.079Z,99129.53
2022-11-23T09:27:02.166Z,99133.81
2022-11-23T09:29:38.696Z,99134.72
2022-11-23T09:32:09.630Z,99130.31
2022-11-23T09:34:40.340Z,99128.44
2022-11-23T09:37:10.886Z,99128.69
2022-11-23T09:39:41.545Z,99126.53
2022-11-23T09:42:25.103Z,99131.69
2022-11-23T09:45:09.234Z,99128.66
2022-11-23T09:47:48.990Z,99140.06
2022-11-23T09:50:25.524Z,99136.09
2022-11-23T09:52:55.221Z,99129.47
2022-11-23T09:55:28.448Z,99130.97
2022-11-23T09:58:02.736Z,99132.97
2022-11-23T10:00:40.117Z,99135.03
2022-11-23T10:03:13.221Z,99136.09
2022-11-23T10:05:44.821Z,99122.25
2022-11-23T10:08:17.846Z,99126.09
2022-11-23T10:10:48.316Z,99127.72
2022-11-23T10:13:27.177Z,99123.13
2022-11-23T10:16:05.665Z,99119.44
2022-11-23T10:18:39.955Z,99126.13
2022-11-23T10:21:13.432Z,99119.88
2022-11-23T10:23:56.571Z,99123.34
2022-11-23T10:26:29.940Z,99117.25
2022-11-23T10:29:01.029Z,99115.31
2022-11-23T10:31:34.091Z,99108.75
2022-11-23T10:34:07.864Z,99105.22
2022-11-23T10:36:38.748Z,99101.09
2022-11-23T10:39:17.239Z,99102.75
2022-11-23T10:41:47.517Z,99114.03
2022-11-23T10:44:30.188Z,99112.63
2022-11-23T10:47:03.231Z,99105.44
2022-11-23T10:49:33.612Z,99106.50
2022-11-23T10:52:05.876Z,99100.38
2022-11-23T10:54:36.630Z,99101.59
2022-11-23T10:57:23.068Z,99092.31
2022-11-23T11:00:00.443Z,99091.88
2022-11-23T11:02:32.714Z,99087.09
2022-11-23T11:06:01.075Z,99081.97
2022-11-23T11:08:17.874Z,99075.38
2022-11-23T11:10:50.199Z,99070.75
2022-11-23T11:13:26.983Z,99058.06
2022-11-23T11:15:57.742Z,99050.66
2022-11-23T11:18:34.619Z,99048.78
2022-11-23T11:21:06.411Z,99045.91
2022-11-23T11:23:36.489Z,99040.31
2022-11-23T11:26:16.428Z,99040.66
2022-11-23T11:28:46.149Z,99034.84
2022-11-23T11:31:29.119Z,99030.34
2022-11-23T11:34:04.261Z,99024.31
2022-11-23T11:36:37.298Z,99018.84
2022-11-23T11:39:18.367Z,99009.59
2022-11-23T11:41:48.585Z,99010.88
2022-11-23T11:44:20.983Z,99006.41
2022-11-23T11:46:52.266Z,99000.94
2022-11-23T11:49:26.223Z,99010.88
2022-11-23T11:51:57.378Z,99003.06
2022-11-23T11:54:27.624Z,98995.50
2022-11-23T11:56:58.327Z,99000.69
2022-11-23T11:59:29.571Z,99006.72
2022-11-23T12:02:00.371Z,99005.63
2022-11-23T12:04:37.412Z,98999.38
2022-11-23T12:07:08.378Z,98989.28
2022-11-23T12:09:39.947Z,98990.88
2022-11-23T12:12:14.505Z,98990.13
2022-11-23T12:14:44.081Z,98986.69
2022-11-23T12:17:32.382Z,98981.69
2022-11-23T12:20:07.953Z,98984.69
2022-11-23T12:22:42.370Z,98979.03
2022-11-23T12:25:19.782Z,98974.09
2022-11-23T12:27:56.741Z,98963.72
2022-11-23T12:30:27.974Z,98973.22
2022-11-23T12:33:06.602Z,98971.84
2022-11-23T12:35:58.499Z,98977.09
2022-11-23T12:38:32.916Z,98973.94
2022-11-23T12:41:11.772Z,98973.94
2022-11-23T12:43:48.883Z,98972.00
2022-11-23T12:46:20.478Z,98970.72
2022-11-23T12:48:58.020Z,98969.84
2022-11-23T12:51:36.446Z,98972.84
2022-11-23T12:54:15.481Z,98960.22
2022-11-23T12:56:58.014Z,98959.84
2022-11-23T12:59:27.609Z,98959.06
2022-11-23T13:02:00.079Z,98953.09
2022-11-23T13:04:49.408Z,98950.81
2022-11-23T13:07:42.296Z,98944.13
2022-11-23T13:10:21.235Z,98945.59
2022-11-23T13:13:15.421Z,98933.97
2022-11-23T13:15:54.417Z,98950.00
2022-11-23T13:18:30.837Z,98940.28
2022-11-23T13:21:08.282Z,98930.09
2022-11-23T13:23:41.122Z,98926.19
2022-11-23T13:26:20.950Z,98923.66
2022-11-23T13:28:50.779Z,98922.94
2022-11-23T13:31:23.679Z,98910.41
2022-11-23T13:33:55.172Z,98907.47
2022-11-23T13:37:11.157Z,98906.34
2022-11-23T13:40:03.811Z,98907.25
2022-11-23T13:42:37.432Z,98895.75
2022-11-23T13:45:17.570Z,98894.47
2022-11-23T13:48:08.472Z,98892.06
2022-11-23T13:50:38.066Z,98887.91
2022-11-23T13:53:07.647Z,98897.81
2022-11-23T13:55:37.858Z,98891.63
2022-11-23T13:58:49.392Z,98894.22
2022-11-23T14:01:46.882Z,98888.53
2022-11-23T14:04:22.708Z,98888.97
2022-11-23T14:06:55.492Z,98883.88
2022-11-23T14:09:27.871Z,98883.28
2022-11-23T14:12:06.820Z,98883.66
2022-11-23T14:14:44.165Z,98884.44
2022-11-23T14:17:33.198Z,98889.34
2022-11-23T14:20:22.579Z,98893.16
2022-11-23T14:23:00.858Z,98891.25
2022-11-23T14:25:38.548Z,98893.00
2022-11-23T14:28:12.311Z,98894.31
2022-11-23T14:30:49.561Z,98888.50
2022-11-23T14:33:29.988Z,98899.53
2022-11-23T14:36:08.922Z,98897.66
2022-11-23T14:38:49.783Z,98890.66
2022-11-23T14:41:20.474Z,98890.88
2022-11-23T14:43:49.941Z,98891.03
2022-11-23T14:46:21.178Z,98882.78
2022-11-23T14:48:53.493Z,98881.91
2022-11-23T14:51:26.553Z,98887.47
2022-11-23T14:53:57.164Z,98899.72
2022-11-23T14:56:33.075Z,98901.88
2022-11-23T14:59:04.556Z,98904.28
2022-11-23T15:01:34.108Z,98906.03
2022-11-23T15:04:11.297Z,98909.19
2022-11-23T15:06:45.586Z,98916.28
2022-11-23T15:09:19.172Z,98912.16
2022-11-23T15:11:49.224Z,98919.94
2022-11-23T15:14:20.612Z,98904.94
2022-11-23T15:16:50.255Z,98902.53
2022-11-23T15:19:26.055Z,98907.66
2022-11-23T15:21:55.536Z,98909.03
2022-11-23T15:24:25.617Z,98913.19
2022-11-23T15:26:55.528Z,98916.88
2022-11-23T15:29:35.831Z,98903.00
2022-11-23T15:32:33.374Z,98909.91
2022-11-23T15:35:08.310Z,98915.50
2022-11-23T15:37:40.633Z,98915.47
2022-11-23T15:40:15.606Z,98919.19
2022-11-23T15:42:45.352Z,98916.03
2022-11-23T15:45:36.110Z,98920.31
2022-11-23T15:48:05.895Z,98929.16
2022-11-23T15:50:38.476Z,98925.41
2022-11-23T15:53:07.939Z,98933.19
2022-11-23T15:55:37.434Z,98934.28
2022-11-23T15:58:07.673Z,98940.97
2022-11-23T16:00:37.181Z,98939.53
2022-11-23T16:03:34.925Z,98937.47
2022-11-23T16:06:25.356Z,98950.53
2022-11-23T16:08:54.812Z,98949.09
2022-11-23T16:11:32.609Z,98961.34
2022-11-23T16:14:15.400Z,98966.97
2022-11-23T16:16:46.269Z,98973.34
2022-11-23T16:19:26.714Z,98970.69
2022-11-23T16:22:02.581Z,98983.31
2022-11-23T16:24:32.991Z,98977.94
2022-11-23T16:27:03.146Z,98985.53
2022-11-23T16:29:38.793Z,98984.66
2022-11-23T16:32:09.596Z,98996.13
2022-11-23T16:34:39.121Z,98999.50
2022-11-23T16:37:11.193Z,99012.63
2022-11-23T16:39:40.627Z,99017.38
2022-11-23T16:42:10.081Z,99022.06
2022-11-23T16:44:41.906Z,99024.63
2022-11-23T16:47:24.785Z,99037.94
2022-11-23T16:49:54.445Z,99037.94
2022-11-23T16:52:26.603Z,99039.88
2022-11-23T16:54:56.027Z,99051.50
2022-11-23T16:57:31.615Z,99040.41
2022-11-23T17:00:10.526Z,99049.81
2022-11-23T17:02:40.025Z,99062.75
2022-11-23T17:05:12.378Z,99061.50
2022-11-23T17:07:44.467Z,99063.53
2022-11-23T17:10:14.163Z,99076.19
2022-11-23T17:12:43.744Z,99079.72
2022-11-23T17:15:13.603Z,99085.09
2022-11-23T17:17:43.299Z,99088.47
2022-11-23T17:20:14.239Z,99093.53
2022-11-23T17:22:46.491Z,99095.63
2022-11-23T17:25:15.906Z,99100.91
2022-11-23T17:27:46.188Z,99096.13
2022-11-23T17:30:17.390Z,99095.81
2022-11-23T17:32:46.896Z,99100.09
2022-11-23T17:35:16.447Z,99098.63
2022-11-23T17:37:48.676Z,99104.09
2022-11-23T17:40:18.688Z,99101.69
2022-11-23T17:42:48.285Z,99112.00
2022-11-23T17:45:18.014Z,99122.88
2022-11-23T17:47:47.725Z,99116.94
2022-11-23T17:50:19.670Z,99113.78
2022-11-23T17:52:51.709Z,99120.91
2022-11-23T17:55:21.153Z,99117.13
2022-11-23T17:57:50.580Z,99120.50
2022-11-23T18:00:21.955Z,99118.06
2022-11-23T18:02:52.947Z,99129.28
2022-11-23T18:05:22.612Z,99131.81
2022-11-23T18:07:54.761Z,99130.94
2022-11-23T18:10:24.300Z,99138.16
2022-11-23T18:12:53.770Z,99146.53
2022-11-23T18:15:23.458Z,99150.31
2022-11-23T18:17:52.908Z,99149.19
2022-11-23T18:20:22.596Z,99158.91
2022-11-23T18:22:54.653Z,99157.88
2022-11-23T18:25:24.112Z,99165.16
2022-11-23T18:27:54.369Z,99167.13
2022-11-23T18:30:23.835Z,99167.50
2022-11-23T18:32:53.306Z,99173.78
2022-11-23T18:35:23.003Z,99178.25
2022-11-23T18:37:55.052Z,99178.84
2022-11-23T18:40:24.531Z,99180.47
2022-11-23T18:42:54.004Z,99187.97
2022-11-23T18:45:23.674Z,99187.13
2022-11-23T18:47:53.156Z,99189.78
2022-11-23T18:50:22.632Z,99192.63
2022-11-23T18:52:54.902Z,99191.84
2022-11-23T18:55:24.358Z,99190.19
2022-11-23T18:57:55.960Z,99202.59
2022-11-23T19:00:25.658Z,99205.03
2022-11-23T19:02:55.990Z,99203.78
2022-11-23T19:05:25.556Z,99210.22
2022-11-23T19:07:57.636Z,99210.66
2022-11-23T19:10:27.176Z,99223.09
2022-11-23T19:12:58.813Z,99219.69
2022-11-23T19:15:31.863Z,99226.78
2022-11-23T19:18:01.433Z,99232.94
2022-11-23T19:20:31.504Z,99234.53
2022-11-23T19:23:03.529Z,99240.03
2022-11-23T19:25:33.837Z,99240.47
2022-11-23T19:28:03.333Z,99242.97
2022-11-23T19:30:32.807Z,99245.84
2022-11-23T19:33:02.246Z,99244.75
2022-11-23T19:35:31.745Z,99260.97
2022-11-23T19:38:03.788Z,99261.44
2022-11-23T19:40:33.251Z,99272.19
2022-11-23T19:43:02.926Z,99271.38
2022-11-23T19:45:32.564Z,99277.88
2022-11-23T19:48:02.045Z,99280.94
2022-11-23T19:50:31.785Z,99287.88
2022-11-23T19:53:12.467Z,99292.59
2022-11-23T19:55:42.192Z,99284.72
2022-11-23T19:58:11.607Z,99300.34
2022-11-23T20:00:45.957Z,99302.78
2022-11-23T20:03:15.717Z,99302.63
2022-11-23T20:05:59.027Z,99313.34
2022-11-23T20:08:31.186Z,99315.59
2022-11-23T20:11:00.726Z,99322.69
2022-11-23T20:13:30.163Z,99314.63
2022-11-23T20:16:04.057Z,99317.91
2022-11-23T20:18:33.576Z,99319.91
2022-11-23T20:21:03.125Z,99318.13
2022-11-23T20:23:35.168Z,99329.72
2022-11-23T20:26:04.596Z,99326.03
2022-11-23T20:28:34.049Z,99342.22
2022-11-23T20:31:06.079Z,99344.00
2022-11-23T20:33:35.594Z,99347.66
2022-11-23T20:36:12.004Z,99360.59
2022-11-23T20:38:44.068Z,99365.47
2022-11-23T20:41:15.456Z,99364.78
2022-11-23T20:43:45.615Z,99359.69
2022-11-23T20:46:31.682Z,99372.03
2022-11-23T20:49:04.771Z,99391.25
2022-11-23T20:51:34.281Z,99404.03
2022-11-23T20:54:06.890Z,99400.53
2022-11-23T20:56:36.374Z,99411.28
2022-11-23T20:59:05.829Z,99411.66
2022-11-23T21:01:35.367Z,99413.47
2022-11-23T21:04:04.896Z,99418.75
2022-11-23T21:06:39.006Z,99418.53
2022-11-23T21:09:12.326Z,99425.00
2022-11-23T21:11:54.269Z,99421.75
2022-11-23T21:14:24.662Z,99417.91
2022-11-23T21:16:56.191Z,99429.94
2022-11-23T21:19:26.559Z,99440.66
2022-11-23T21:21:56.828Z,99433.59
2022-11-23T21:24:28.919Z,99443.69
2022-11-23T21:26:58.402Z,99439.81
2022-11-23T21:29:28.412Z,99460.13
2022-11-23T21:31:57.908Z,99468.03
2022-11-23T21:34:28.114Z,99463.75
2022-11-23T21:36:58.665Z,99467.38
2022-11-23T21:39:33.141Z,99464.56
2022-11-23T21:42:02.708Z,99466.78
2022-11-23T21:44:32.623Z,99472.03
2022-11-23T21:47:02.438Z,99468.22
2022-11-23T21:49:31.938Z,99479.38
2022-11-23T21:52:01.419Z,99486.50
2022-11-23T21:54:33.771Z,99491.13
2022-11-23T21:57:03.352Z,99494.56
2022-11-23T21:59:32.824Z,99491.53
2022-11-23T22:02:02.379Z,99493.56
2022-11-23T22:04:32.125Z,99502.88
2022-11-23T22:07:01.664Z,99503.09
2022-11-23T22:09:34.401Z,99503.72
2022-11-23T22:12:03.872Z,99513.84
2022-11-23T22:14:33.486Z,99504.91
2022-11-23T22:17:03.135Z,99517.06
2022-11-23T22:19:32.555Z,99509.16
2022-11-23T22:22:02.103Z,99530.06
2022-11-23T22:24:34.436Z,99531.91
2022-11-23T22:27:04.179Z,99526.63
2022-11-23T22:29:33.667Z,99533.31
2022-11-23T22:32:03.178Z,99528.88
2022-11-23T22:34:35.480Z,99525.81
2022-11-23T22:37:10.239Z,99546.28
2022-11-23T22:39:42.905Z,99551.97
2022-11-23T22:42:12.367Z,99542.44
2022-11-23T22:44:41.870Z,99541.63
2022-11-23T22:47:11.455Z,99550.72
2022-11-23T22:49:40.905Z,99552.78
2022-11-23T22:52:10.379Z,99560.88
2022-11-23T22:54:42.380Z,99566.16
2022-11-23T22:57:12.064Z,99566.97
2022-11-23T22:59:41.506Z,99569.41
2022-11-23T23:02:11.115Z,99578.09
2022-11-23T23:04:40.578Z,99573.44
2022-11-23T23:07:10.770Z,99584.38
2022-11-23T23:09:42.860Z,99580.13
2022-11-23T23:12:20.714Z,99586.81
2022-11-23T23:14:50.156Z,99585.63
2022-11-23T23:17:19.613Z,99590.06
2022-11-23T23:19:49.061Z,99583.78
2022-11-23T23:22:18.592Z,99596.56
2022-11-23T23:24:51.403Z,99593.53
2022-11-23T23:27:21.136Z,99591.66
2022-11-23T23:29:50.615Z,99589.66
2022-11-23T23:32:20.069Z,99590.88
2022-11-23T23:34:49.646Z,99588.44
2022-11-23T23:37:19.165Z,99593.91
2022-11-23T23:39:51.256Z,99605.66
2022-11-23T23:42:20.889Z,99594.72
2022-11-23T23:44:50.341Z,99610.91
2022-11-23T23:47:19.795Z,99603.81
2022-11-23T23:49:49.375Z,99609.88
2022-11-23T23:52:18.807Z,99604.63
2022-11-23T23:54:50.897Z,99611.09
2022-11-23T23:57:20.357Z,99608.25
2022-11-23T23:59:49.950Z,99609.28
